WetterOnline ( https://www.wetteronline.ch )

Wetter aktuell Augsburg

Aktuelles Wetter: Augsburg/Mühlhausen (477m)

6-stündlich | Neueste Meldungen
Ortszeit Temperatur Wetter
Di, 12.11. 13:00 5.7° C bedeckt
Di, 12.11. 7:00 3.2° C -
Di, 12.11. 1:00 3.3° C -
Mo, 11.11. 19:00 1.2° C bewölkt
Mo, 11.11. 13:00 -0.0° C bedeckt
Mo, 11.11. 7:00 -1.0° C gefr. Sprühregen
Mo, 11.11. 1:00 -0.0° C bedeckt
So, 10.11. 19:00 0.7° C bewölkt
Ortszeit Temperatur Wetter
Di, 12.11. 16:30 5.5° C bedeckt
Di, 12.11. 16:20 5.5° C bedeckt
Di, 12.11. 16:10 5.3° C bedeckt
Di, 12.11. 16:00 5.5° C bedeckt
Di, 12.11. 15:50 5.5° C bedeckt
Di, 12.11. 15:40 5.3° C bedeckt
Di, 12.11. 15:30 5.4° C wolkig
Di, 12.11. 15:00 5.5° C bedeckt
Di, 12.11. 14:30 5.6° C bewölkt
Di, 12.11. 14:00 5.8° C bewölkt
Di, 12.11. 13:30 5.8° C bewölkt
Ortszeit Relative Feuchte Sichtweite
Di, 12.11. 13:00 73% 60 km
Di, 12.11. 7:00 94% 14 km
Di, 12.11. 1:00 92% 21 km
Mo, 11.11. 19:00 92% 11 km
Mo, 11.11. 13:00 96% 8 km
Mo, 11.11. 7:00 100% 0.4 km
Mo, 11.11. 1:00 96% 4.0 km
So, 10.11. 19:00 96% 7 km
Ortszeit Relative Feuchte Sichtweite
Di, 12.11. 16:30 71% 60 km
Di, 12.11. 16:20 71% -
Di, 12.11. 16:10 75% -
Di, 12.11. 16:00 75% 60 km
Di, 12.11. 15:50 75% -
Di, 12.11. 15:40 76% -
Di, 12.11. 15:30 74% 60 km
Di, 12.11. 15:00 69% 65 km
Di, 12.11. 14:30 70% 65 km
Di, 12.11. 14:00 72% 60 km
Di, 12.11. 13:30 74% 55 km
Ortszeit Niederschlagsmenge Niederschlagsart
Di, 12.11. 13:00 0.0 l/m2 in 6 Std. -
Di, 12.11. 7:00 0.9 l/m2 in 12 Std. Regen
Di, 12.11. 1:00 0.8 l/m2 in 6 Std. Regen
Mo, 11.11. 19:00 0.1 l/m2 in 12 Std. -
Mo, 11.11. 13:00 0.1 l/m2 in 6 Std. Sprühregen
Mo, 11.11. 7:00 0.1 l/m2 in 12 Std. Sprühregen
Mo, 11.11. 1:00 0.0 l/m2 in 6 Std. -
So, 10.11. 19:00 0.0 l/m2 in 12 Std. -
Ortszeit Niederschlagsmenge Niederschlagsart
Di, 12.11. 16:30 0.0 l/m2 in 1 Std. -
Di, 12.11. 16:20 keine Meldung -
Di, 12.11. 16:10 keine Meldung -
Di, 12.11. 16:00 0.0 l/m2 in 1 Std. -
Di, 12.11. 15:50 keine Meldung -
Di, 12.11. 15:40 keine Meldung -
Di, 12.11. 15:30 0.0 l/m2 in 1 Std. -
Di, 12.11. 15:00 0.0 l/m2 in 1 Std. -
Di, 12.11. 14:30 0.0 l/m2 in 1 Std. -
Di, 12.11. 14:00 0.0 l/m2 in 1 Std. -
Di, 12.11. 13:30 0.0 l/m2 in 1 Std. -
Ortszeit Stärke Spitze Richtung
km/h Bft. km/h Grad Sektor
Di, 12.11. 13:00 11 2 22 230° SW
Di, 12.11. 7:00 9 2 24 210° SW
Di, 12.11. 1:00 13 3 22 200° S
Mo, 11.11. 19:00 7 2 18 230° SW
Mo, 11.11. 13:00 6 1 20 220° SW
Mo, 11.11. 7:00 6 1 17 50° NO
Mo, 11.11. 1:00 4 1 14 110° O
So, 10.11. 19:00 6 1 15 240° SW
Ortszeit Stärke Spitze Richtung
km/h Bft. km/h Grad Sektor
Di, 12.11. 16:30 7 2 11 230° SW
Di, 12.11. 16:20 7 2 - 230° SW
Di, 12.11. 16:10 6 1 - 230° SW
Di, 12.11. 16:00 7 2 11 250° W
Di, 12.11. 15:50 7 2 - 250° W
Di, 12.11. 15:40 6 1 - 250° W
Di, 12.11. 15:30 6 1 11 250° W
Di, 12.11. 15:00 9 2 17 260° W
Di, 12.11. 14:30 9 2 17 270° W
Di, 12.11. 14:00 6 1 19 230° SW
Di, 12.11. 13:30 11 2 18 210° SW
Ortszeit Untergrenze Bedeckung Gattung
total tief tief mittel hoch
Di, 12.11. 13:00 2700 m 8/8 8/8 - - -
Di, 12.11. 7:00 - - - - - -
Di, 12.11. 1:00 - - - - - -
Mo, 11.11. 19:00 180 m 7/8 7/8 - - -
Mo, 11.11. 13:00 150 m 8/8 8/8 - - -
Mo, 11.11. 7:00 30 m 8/8 8/8 - - -
Mo, 11.11. 1:00 90 m 8/8 8/8 - - -
So, 10.11. 19:00 180 m 7/8 7/8 - - -
Ortszeit Bedeckungsgrad in Achtel und Wolkenuntergrenze
Di, 12.11. 16:30 8(3000m)
Di, 12.11. 16:20 8(3000m)
Di, 12.11. 16:10 8(3000m) 8(4500m)
Di, 12.11. 16:00 8(2700m) 8(4200m)
Di, 12.11. 15:50 8(2700m) 8(4200m)
Di, 12.11. 15:40 8(2700m) 8(4200m)
Di, 12.11. 15:30 3(2400m) 7(3000m) 8(3600m)
Di, 12.11. 15:00 2(2400m) 8(2700m)
Di, 12.11. 14:30 6(2400m) 7(2700m)
Di, 12.11. 14:00 2(780m) 7(2400m) 7(2700m)
Di, 12.11. 13:30 7(2400m)
Ortszeit Luftdruck NN (hPa) Tendenz (hPa in 3 Std.)
Di, 12.11. 13:00 1009 - 1,7
Di, 12.11. 7:00 1011 + 0,8
Di, 12.11. 1:00 1010 - 0,3
Mo, 11.11. 19:00 1011 + 0,5
Mo, 11.11. 13:00 1013 - 2,9
Mo, 11.11. 7:00 1017 - 0,5
Mo, 11.11. 1:00 1018 + 0,1
So, 10.11. 19:00 1018 + 1,8
Ortszeit Luftdruck NN (hPa) Tendenz (hPa in 3 Std.)
Di, 12.11. 16:30 1007 - 1,1
Di, 12.11. 16:20 1007 keine Meldung
Di, 12.11. 16:10 1007 keine Meldung
Di, 12.11. 16:00 1008 - 1,0
Di, 12.11. 15:50 1008 keine Meldung
Di, 12.11. 15:40 1008 keine Meldung
Di, 12.11. 15:30 1008 - 0,5
Di, 12.11. 15:00 1007 - 1,3
Di, 12.11. 14:30 1008 - 1,8
Di, 12.11. 14:00 1008 - 1,8
Di, 12.11. 13:30 1008 - 1,5
Ortszeit Schneehöhe (cm)
Di, 12.11. 13:00 0
Di, 12.11. 7:00 0
Di, 12.11. 1:00 0
Mo, 11.11. 19:00 0
Mo, 11.11. 13:00 0
Mo, 11.11. 7:00 0
Mo, 11.11. 1:00 0
So, 10.11. 19:00 0
Ortszeit Schneehöhe (cm)
Di, 12.11. 16:30 0
Di, 12.11. 16:20 0
Di, 12.11. 16:10 0
Di, 12.11. 16:00 0
Di, 12.11. 15:50 0
Di, 12.11. 15:40 0
Di, 12.11. 15:30 0
Di, 12.11. 15:00 0
Di, 12.11. 14:30 0
Di, 12.11. 14:00 0
Di, 12.11. 13:30 0
Link zu dieser Seite / Seite empfehlen

Das Wetter in ...